Professor Molchanov — UAKA — position and weather

sailwx.info

Track history (hours):
 
Tides and Currents Weather Stations Pressure Air Temp Water Temp Dewpoint Dewpoint Depression Visibility Wind Speed Wind Dir Waves Ship Positions

Professor Molchanov (Russia)

Built in Finland in 1982-83 for polar and oceanographic research.

Ship's website: http://www.quarkexpeditions.com/fleet/molchanov.shtml

Last reported at 2019-Jul-11 00:00 UTC. Time now 2019-Jul-16 10:06 UTC.
Position N 65°00' E 040°00'.

Length 72 m; beam 13 m.

Type: Ship. MMSI: 273458500.

Wind from 360 at 12 knots

Barometer 1004.5 mb
Air temperature 5.0 ° C
Visibility: greater than 10.8 NM

Date/timePositionNaut miles runAvg speedWind from/ knotsBaromVisibWave heightAir tempDewpointWater temp
2019-Jul-11 00:00N 65°00' E 040°00'16 2.6 360 / 121004.510.8 5.0
2019-Jul-10 18:00N 65°12' E 039°36'25 4.1 010 / 231006.810.8 6.3
2019-Jul-10 12:00N 65°36' E 039°24'44 7.3 020 / 251008.410.8 5.4
2019-Jul-10 06:00N 66°12' E 040°24'6510.8 050 / 251009.2 5.4 4.9
2019-Jul-10 00:00N 67°12' E 041°24'49 8.2 360 / 171010.4 5.4 5.8
2019-Jul-09 18:00N 68°00' E 040°54'40 6.7 360 / 141011.3 2.2 5.2
2019-Jul-09 12:00N 68°30' E 039°42'42 7.0 320 / 101011.8 5.4 7.2
2019-Jul-09 06:00N 69°12' E 039°42'36 6.0 310 / 121012.610.8 6.5
2019-Jul-09 00:00N 69°48' E 039°36'48 8.1 310 / 121015.110.8 5.8
2019-Jul-08 18:00N 70°36' E 039°54'5 4.2 320 / 101017.5 5.4 5.0
2019-Jul-08 16:51N 70°41' E 039°55'31 6.4
2019-Jul-08 12:00N 71°12' E 040°00'48 8.0 350 / 41019.4 5.4 5.0
2019-Jul-08 06:00N 72°00' E 039°48'60 9.9 030 / 121019.810.8 5.6
2019-Jul-08 00:00N 72°36' E 037°12'57 9.5 020 / 141021.8 0.0 4.9
2019-Jul-07 18:00N 73°12' E 034°42'30 5.0 050 / 101023.310.8 5.9
2019-Jul-07 12:00N 73°30' E 033°18'52 8.6 110 / 81023.310.8 7.0
2019-Jul-07 06:00N 74°00' E 030°48'53 8.8 080 / 141021.110.8 6.1
2019-Jul-07 00:00N 74°00' E 027°36'41 6.9 080 / 17 10.8 7.1
2019-Jul-06 18:00N 74°00' E 025°06'46 7.7 080 / 191016.510.8 7.5
2019-Jul-06 12:00N 74°18' E 022°30'47 7.8 080 / 161014.6 5.4 6.6
2019-Jul-06 06:00N 74°54' E 020°36'32 5.4 070 / 161012.1 2.2 3.1
2019-Jul-06 00:00N 75°24' E 019°48'56 9.3 070 / 211011.6 5.4 2.7
2019-Jul-05 18:00N 76°06' E 017°18'33 3.3 040 / 291011.9 2.2 2.2
2019-Jul-05 07:56N 76°24' E 015°22'2 4.3
2019-Jul-05 07:30N 76°25' E 015°15'3 6.2
2019-Jul-05 07:00N 76°27' E 015°05'4 7.9
2019-Jul-05 06:30N 76°30' E 014°55'1018.5
2019-Jul-05 06:00N 76°36' E 014°24'51728.6 030 / 171010.9 5.4 4.9
2019-Jul-05 05:59N 76°33' E 014°43'4 8.6
2019-Jul-05 05:30N 76°37' E 014°33'5 9.3
2019-Jul-05 05:00N 76°40' E 014°21'4 9.0
2019-Jul-05 04:31N 76°44' E 014°12'4 8.4
2019-Jul-05 04:00N 76°48' E 014°00'4 8.6
2019-Jul-05 03:30N 76°51' E 013°48'4 8.9
2019-Jul-05 03:00N 76°55' E 013°37'1010.0
2019-Jul-05 02:00N 77°04' E 013°18'510.5
2019-Jul-05 01:31N 77°08' E 013°08'510.1
2019-Jul-05 01:00N 77°13' E 012°59'510.2
2019-Jul-05 00:30N 77°18' E 012°50'510.1
2019-Jul-05 00:00N 77°22' E 012°42'8552.0
2019-Jul-05 00:00N 77°30' E 012°36'3 5.1 060 / 291015.510.8 6.1
2019-Jul-04 23:30N 77°28' E 012°39'5 9.8
2019-Jul-04 23:00N 77°32' E 012°37'5 9.6
2019-Jul-04 22:30N 77°37' E 012°35'5 9.6
2019-Jul-04 22:00N 77°42' E 012°33'5 9.8
2019-Jul-04 21:30N 77°47' E 012°30'5 9.6
2019-Jul-04 21:00N 77°52' E 012°27'4 8.0
2019-Jul-04 20:30N 77°55' E 012°17'1 1.5
2019-Jul-04 20:00N 77°54' E 012°19'0 0.9
2019-Jul-04 19:30N 77°54' E 012°21'0 0.8
2019-Jul-04 19:00N 77°54' E 012°23'0 0.8
2019-Jul-04 18:30N 77°54' E 012°24'0 0.6
2019-Jul-04 18:00N 77°54' E 012°26'0 0.6
2019-Jul-04 17:30N 77°54' E 012°27'2 3.1
2019-Jul-04 17:00N 77°56' E 012°27'4 8.9
2019-Jul-04 16:30N 77°59' E 012°40'510.3
2019-Jul-04 16:00N 78°02' E 013°01'510.2
2019-Jul-04 15:30N 78°04' E 013°24'510.1
2019-Jul-04 15:00N 78°06' E 013°45'4 8.8
2019-Jul-04 14:30N 78°05' E 014°06'3 5.5
2019-Jul-04 13:54N 78°02' E 014°14'0 0.0
2019-Jul-04 13:27N 78°02' E 014°14'0 0.0
2019-Jul-04 12:54N 78°02' E 014°14'0 0.1
2019-Jul-04 12:21N 78°02' E 014°14'2 6.5
2019-Jul-04 12:00N 78°00' E 014°12'2 6.5 360 / 61019.810.8 7.3
2019-Jul-04 11:39N 78°02' E 014°14'0 0.0
2019-Jul-04 11:27N 78°02' E 014°14'0 0.0
2019-Jul-04 10:51N 78°02' E 014°14'0 0.1
2019-Jul-04 10:30N 78°02' E 014°14'0 0.0
2019-Jul-04 10:00N 78°02' E 014°14'0 0.0
2019-Jul-04 09:24N 78°02' E 014°14'0 0.0
2019-Jul-04 09:00N 78°02' E 014°13'0 0.0
2019-Jul-04 08:30N 78°02' E 014°14'0 0.0
2019-Jul-04 08:00N 78°02' E 014°14'0 0.0
2019-Jul-04 07:30N 78°02' E 014°14'0 0.0
2019-Jul-04 06:59N 78°02' E 014°14'0 0.1
2019-Jul-04 06:30N 78°02' E 014°14'2 4.5
2019-Jul-04 06:00N 78°00' E 014°12'245.2 330 / 61018.910.8 7.9
2019-Jul-04 05:56N 78°02' E 014°13'0 0.0
2019-Jul-04 05:26N 78°02' E 014°13'0 0.0
2019-Jul-04 04:59N 78°02' E 014°13'0 0.0
2019-Jul-04 04:29N 78°02' E 014°13'0 0.0
2019-Jul-04 03:59N 78°02' E 014°14'0 0.0
2019-Jul-04 03:29N 78°02' E 014°13'0 0.0
2019-Jul-04 02:59N 78°02' E 014°14'0 0.0
2019-Jul-04 01:59N 78°02' E 014°13'0 0.0
2019-Jul-04 01:29N 78°02' E 014°14'0 0.0
2019-Jul-04 00:59N 78°02' E 014°14'0 0.0
2019-Jul-04 00:29N 78°02' E 014°14'2 4.6
2019-Jul-04 00:00N 78°00' E 014°12'22049.3 320 / 21018.010.8 5.9
2019-Jul-03 23:59N 78°02' E 014°13'0 0.0
2019-Jul-03 23:29N 78°02' E 014°14'0 0.0
2019-Jul-03 22:59N 78°02' E 014°14'0 0.0
2019-Jul-03 22:29N 78°02' E 014°14'0 0.0
2019-Jul-03 21:59N 78°02' E 014°14'0 0.0
2019-Jul-03 21:26N 78°02' E 014°14'0 0.1
2019-Jul-03 21:00N 78°02' E 014°14'3 6.3
2019-Jul-03 20:30N 78°05' E 014°07'5 9.9
2019-Jul-03 20:00N 78°09' E 014°19'510.6
2019-Jul-03 19:30N 78°12' E 014°42'510.5
2019-Jul-03 19:00N 78°14' E 015°05'510.0
2019-Jul-03 18:30N 78°16' E 015°27'3 6.0
2019-Jul-03 18:00N 78°14' E 015°38'0 0.1
2019-Jul-03 17:30N 78°14' E 015°38'0 0.0
2019-Jul-03 17:00N 78°14' E 015°38'0 0.0
2019-Jul-03 16:30N 78°14' E 015°38'0 0.0
2019-Jul-03 16:00N 78°14' E 015°38'0 0.0
2019-Jul-03 15:30N 78°14' E 015°38'0 0.0
2019-Jul-03 15:00N 78°14' E 015°38'0 0.0
2019-Jul-03 14:30N 78°14' E 015°38'0 0.0
2019-Jul-03 14:00N 78°14' E 015°38'0 0.0
2019-Jul-03 13:30N 78°14' E 015°38'0 0.0
2019-Jul-03 13:00N 78°14' E 015°38'0 0.0
2019-Jul-03 12:30N 78°14' E 015°38'0 0.1
2019-Jul-03 12:00N 78°14' E 015°38'2208.0
2019-Jul-03 12:00N 78°12' E 015°36'2 4.1 150 / 141014.110.8 6.0
2019-Jul-03 11:30N 78°14' E 015°38'0 0.0
2019-Jul-03 11:00N 78°14' E 015°38'0 0.0
2019-Jul-03 10:30N 78°14' E 015°38'0 0.1
2019-Jul-03 10:00N 78°14' E 015°38'0 0.1
2019-Jul-03 09:30N 78°14' E 015°38'0 0.0
2019-Jul-03 09:00N 78°14' E 015°38'0 0.1
2019-Jul-03 08:30N 78°14' E 015°38'0 0.1
2019-Jul-03 08:00N 78°14' E 015°38'0 0.1
2019-Jul-03 07:30N 78°14' E 015°38'0 0.1
2019-Jul-03 07:00N 78°14' E 015°38'0 0.1
2019-Jul-03 06:30N 78°14' E 015°38'0 0.1
2019-Jul-03 06:00N 78°14' E 015°38'0 0.1
2019-Jul-03 05:30N 78°14' E 015°38'0 0.1
2019-Jul-03 05:00N 78°14' E 015°38'0 0.1
2019-Jul-03 04:30N 78°14' E 015°38'0 0.1
2019-Jul-03 04:00N 78°14' E 015°38'0 0.0
2019-Jul-03 03:30N 78°14' E 015°38'0 0.1
2019-Jul-03 03:00N 78°14' E 015°38'0 0.0
2019-Jul-03 02:00N 78°14' E 015°38'0 0.0
2019-Jul-03 01:30N 78°14' E 015°38'0 0.1
2019-Jul-03 01:00N 78°14' E 015°38'0 0.0
2019-Jul-03 00:30N 78°14' E 015°38'0 0.0
2019-Jul-03 00:00N 78°14' E 015°38'2249.1
2019-Jul-03 00:00N 78°12' E 015°36'2 4.1 360 / 121009.410.8 7.7
2019-Jul-02 23:30N 78°14' E 015°38'0 0.0
2019-Jul-02 23:00N 78°14' E 015°38'0 0.0
2019-Jul-02 22:30N 78°14' E 015°38'0 0.0
2019-Jul-02 21:58N 78°14' E 015°38'0 0.0
2019-Jul-02 21:28N 78°14' E 015°38'0 0.0
2019-Jul-02 20:58N 78°14' E 015°38'0 0.0
2019-Jul-02 20:28N 78°14' E 015°38'0 0.0
2019-Jul-02 19:58N 78°14' E 015°38'0 1.0
2019-Jul-02 19:30N 78°14' E 015°37'4 7.7
2019-Jul-02 18:59N 78°18' E 015°29'510.0
2019-Jul-02 18:28N 78°23' E 015°40'510.2
2019-Jul-02 18:00N 78°26' E 015°55'510.3
2019-Jul-02 17:30N 78°31' E 016°10'610.9
2019-Jul-02 16:58N 78°35' E 016°28'510.5
2019-Jul-02 16:28N 78°39' E 016°43'3 4.6
2019-Jul-02 15:55N 78°39' E 016°31'1 2.3
2019-Jul-02 15:28N 78°39' E 016°25'0 0.0
2019-Jul-02 14:55N 78°39' E 016°25'0 0.0
2019-Jul-02 14:19N 78°39' E 016°25'0 0.0
2019-Jul-02 13:58N 78°39' E 016°25'0 0.0
2019-Jul-02 13:22N 78°39' E 016°25'0 0.0
2019-Jul-02 12:58N 78°39' E 016°25'0 0.0
2019-Jul-02 12:28N 78°39' E 016°25'0 0.0
2019-Jul-02 11:58N 78°39' E 016°25'0 0.0
2019-Jul-02 11:22N 78°39' E 016°25'0 0.0
2019-Jul-02 10:46N 78°39' E 016°25'0 0.0
2019-Jul-02 10:28N 78°39' E 016°25'0 0.0
2019-Jul-02 09:58N 78°39' E 016°25'0 0.0
2019-Jul-02 09:28N 78°39' E 016°25'0 0.0
2019-Jul-02 08:52N 78°39' E 016°25'0 0.0
2019-Jul-02 08:25N 78°39' E 016°25'0 0.0
2019-Jul-02 07:58N 78°39' E 016°25'0 0.5
2019-Jul-02 07:30N 78°39' E 016°26'3 6.4
2019-Jul-02 06:59N 78°35' E 016°27'4 8.8
2019-Jul-02 06:30N 78°32' E 016°15'5 9.3
2019-Jul-02 06:00N 78°28' E 016°01'510.1
2019-Jul-02 05:28N 78°25' E 015°40'510.2
2019-Jul-02 05:00N 78°22' E 015°22'5 9.6
2019-Jul-02 04:30N 78°19' E 015°03'5 9.6
2019-Jul-02 04:00N 78°16' E 014°43'5 9.7
2019-Jul-02 03:30N 78°14' E 014°22'4 9.2
2019-Jul-02 03:00N 78°11' E 014°03'9 8.9
2019-Jul-02 02:00N 78°08' E 013°23'5 9.5
2019-Jul-02 01:30N 78°08' E 013°00'4 8.4
2019-Jul-02 00:59N 78°08' E 012°39'4 9.1
2019-Jul-02 00:30N 78°08' E 012°17'510.4
2019-Jul-01 23:58N 78°08' E 011°51'510.3
2019-Jul-01 23:30N 78°12' E 011°37'510.3
2019-Jul-01 23:00N 78°16' E 011°21'510.5
2019-Jul-01 22:29N 78°20' E 011°04'710.6
2019-Jul-01 21:49N 78°26' E 010°42'17 9.7
2019-Jul-01 20:04N 78°41' E 010°00'210.6
2019-Jul-01 19:53N 78°43' E 010°00'510.6
2019-Jul-01 19:26N 78°48' E 010°00'510.6
2019-Jul-01 19:00N 78°52' E 010°00'4 8.5
2019-Jul-01 18:30N 78°56' E 010°13'2 4.2
2019-Jul-01 18:00N 78°56' E 010°23'2 4.1
2019-Jul-01 17:30N 78°57' E 010°33'510.2
2019-Jul-01 17:00N 78°59' E 010°59'510.3
2019-Jul-01 16:30N 78°60' E 011°24'510.1
2019-Jul-01 16:00N 78°58' E 011°49'2 4.6
2019-Jul-01 15:30N 78°56' E 011°55'0 0.1
2019-Jul-01 15:00N 78°56' E 011°55'0 0.0
2019-Jul-01 14:30N 78°56' E 011°55'0 0.0
2019-Jul-01 14:00N 78°56' E 011°55'0 0.1
2019-Jul-01 13:30N 78°56' E 011°55'0 0.1
2019-Jul-01 13:00N 78°56' E 011°55'0 0.0
2019-Jul-01 12:30N 78°56' E 011°55'0 0.1
2019-Jul-01 12:00N 78°56' E 011°55'0 0.1
2019-Jul-01 11:30N 78°56' E 011°55'0 0.1
2019-Jul-01 11:00N 78°56' E 011°55'0 0.1
2019-Jul-01 10:30N 78°56' E 011°55'0 0.0
2019-Jul-01 10:00N 78°56' E 011°55'0 0.1
2019-Jul-01 09:30N 78°56' E 011°55'0 0.1
2019-Jul-01 09:00N 78°56' E 011°55'0 0.1
2019-Jul-01 08:30N 78°56' E 011°55'0 0.0
2019-Jul-01 08:00N 78°56' E 011°55'0 0.1
2019-Jul-01 07:30N 78°56' E 011°55'0 0.1
2019-Jul-01 07:00N 78°56' E 011°55'0 0.0
2019-Jul-01 06:30N 78°56' E 011°55'0 0.1
2019-Jul-01 06:00N 78°56' E 011°55'2320.5
2019-Jul-01 06:00N 78°54' E 011°54'2 4.1 130 / 231004.010.8 8.7
2019-Jul-01 05:30N 78°56' E 011°55'0 0.0
2019-Jul-01 05:00N 78°56' E 011°55'0 0.0
2019-Jul-01 04:30N 78°56' E 011°55'0 0.5
2019-Jul-01 04:00N 78°56' E 011°55'4 7.6
2019-Jul-01 03:29N 78°59' E 011°39'5 9.8
2019-Jul-01 03:00N 78°59' E 011°14'5 9.9
2019-Jul-01 02:30N 78°58' E 010°51'5 9.9
2019-Jul-01 01:59N 78°56' E 010°26'5 9.9
2019-Jul-01 01:30N 78°55' E 010°01'5 9.5
2019-Jul-01 00:57N 78°50' E 010°00'  
Track history (hours):
 
Tides and Currents Weather Stations Pressure Air Temp Water Temp Dewpoint Dewpoint Depression Visibility Wind Speed Wind Dir Waves Ship Positions

Professor Molchanov (Russia)

Built in Finland in 1982-83 for polar and oceanographic research.

Ship's website: http://www.quarkexpeditions.com/fleet/molchanov.shtml

Last reported at 2019-Jul-11 00:00 UTC. Time now 2019-Jul-16 10:06 UTC.
Position N 65°00' E 040°00'.

Length 72 m; beam 13 m.

Type: Ship. MMSI: 273458500.

Wind from 360 at 12 knots

Barometer 1004.5 mb
Air temperature 5.0 ° C
Visibility: greater than 10.8 NM

Date/timePositionNaut miles runAvg speedWind from/ knotsBaromVisibWave heightAir tempDewpointWater temp
2019-Jul-11 00:00N 65°00' E 040°00'16 2.6 360 / 121004.510.8 5.0
2019-Jul-10 18:00N 65°12' E 039°36'25 4.1 010 / 231006.810.8 6.3
2019-Jul-10 12:00N 65°36' E 039°24'44 7.3 020 / 251008.410.8 5.4
2019-Jul-10 06:00N 66°12' E 040°24'6510.8 050 / 251009.2 5.4 4.9
2019-Jul-10 00:00N 67°12' E 041°24'49 8.2 360 / 171010.4 5.4 5.8
2019-Jul-09 18:00N 68°00' E 040°54'40 6.7 360 / 141011.3 2.2 5.2
2019-Jul-09 12:00N 68°30' E 039°42'42 7.0 320 / 101011.8 5.4 7.2
2019-Jul-09 06:00N 69°12' E 039°42'36 6.0 310 / 121012.610.8 6.5
2019-Jul-09 00:00N 69°48' E 039°36'48 8.1 310 / 121015.110.8 5.8
2019-Jul-08 18:00N 70°36' E 039°54'5 4.2 320 / 101017.5 5.4 5.0
2019-Jul-08 16:51N 70°41' E 039°55'31 6.4
2019-Jul-08 12:00N 71°12' E 040°00'48 8.0 350 / 41019.4 5.4 5.0
2019-Jul-08 06:00N 72°00' E 039°48'60 9.9 030 / 121019.810.8 5.6
2019-Jul-08 00:00N 72°36' E 037°12'57 9.5 020 / 141021.8 0.0 4.9
2019-Jul-07 18:00N 73°12' E 034°42'30 5.0 050 / 101023.310.8 5.9
2019-Jul-07 12:00N 73°30' E 033°18'52 8.6 110 / 81023.310.8 7.0
2019-Jul-07 06:00N 74°00' E 030°48'53 8.8 080 / 141021.110.8 6.1
2019-Jul-07 00:00N 74°00' E 027°36'41 6.9 080 / 17 10.8 7.1
2019-Jul-06 18:00N 74°00' E 025°06'46 7.7 080 / 191016.510.8 7.5
2019-Jul-06 12:00N 74°18' E 022°30'47 7.8 080 / 161014.6 5.4 6.6
2019-Jul-06 06:00N 74°54' E 020°36'32 5.4 070 / 161012.1 2.2 3.1
2019-Jul-06 00:00N 75°24' E 019°48'56 9.3 070 / 211011.6 5.4 2.7
2019-Jul-05 18:00N 76°06' E 017°18'33 3.3 040 / 291011.9 2.2 2.2
2019-Jul-05 07:56N 76°24' E 015°22'2 4.3
2019-Jul-05 07:30N 76°25' E 015°15'3 6.2
2019-Jul-05 07:00N 76°27' E 015°05'4 7.9
2019-Jul-05 06:30N 76°30' E 014°55'1018.5
2019-Jul-05 06:00N 76°36' E 014°24'51728.6 030 / 171010.9 5.4 4.9
2019-Jul-05 05:59N 76°33' E 014°43'4 8.6
2019-Jul-05 05:30N 76°37' E 014°33'5 9.3
2019-Jul-05 05:00N 76°40' E 014°21'4 9.0
2019-Jul-05 04:31N 76°44' E 014°12'4 8.4
2019-Jul-05 04:00N 76°48' E 014°00'4 8.6
2019-Jul-05 03:30N 76°51' E 013°48'4 8.9
2019-Jul-05 03:00N 76°55' E 013°37'1010.0
2019-Jul-05 02:00N 77°04' E 013°18'510.5
2019-Jul-05 01:31N 77°08' E 013°08'510.1
2019-Jul-05 01:00N 77°13' E 012°59'510.2
2019-Jul-05 00:30N 77°18' E 012°50'510.1
2019-Jul-05 00:00N 77°22' E 012°42'8552.0
2019-Jul-05 00:00N 77°30' E 012°36'3 5.1 060 / 291015.510.8 6.1
2019-Jul-04 23:30N 77°28' E 012°39'5 9.8
2019-Jul-04 23:00N 77°32' E 012°37'5 9.6
2019-Jul-04 22:30N 77°37' E 012°35'5 9.6
2019-Jul-04 22:00N 77°42' E 012°33'5 9.8
2019-Jul-04 21:30N 77°47' E 012°30'5 9.6
2019-Jul-04 21:00N 77°52' E 012°27'4 8.0
2019-Jul-04 20:30N 77°55' E 012°17'1 1.5
2019-Jul-04 20:00N 77°54' E 012°19'0 0.9
2019-Jul-04 19:30N 77°54' E 012°21'0 0.8
2019-Jul-04 19:00N 77°54' E 012°23'0 0.8
2019-Jul-04 18:30N 77°54' E 012°24'0 0.6
2019-Jul-04 18:00N 77°54' E 012°26'0 0.6
2019-Jul-04 17:30N 77°54' E 012°27'2 3.1
2019-Jul-04 17:00N 77°56' E 012°27'4 8.9
2019-Jul-04 16:30N 77°59' E 012°40'510.3
2019-Jul-04 16:00N 78°02' E 013°01'510.2
2019-Jul-04 15:30N 78°04' E 013°24'510.1
2019-Jul-04 15:00N 78°06' E 013°45'4 8.8
2019-Jul-04 14:30N 78°05' E 014°06'3 5.5
2019-Jul-04 13:54N 78°02' E 014°14'0 0.0
2019-Jul-04 13:27N 78°02' E 014°14'0 0.0
2019-Jul-04 12:54N 78°02' E 014°14'0 0.1
2019-Jul-04 12:21N 78°02' E 014°14'2 6.5
2019-Jul-04 12:00N 78°00' E 014°12'2 6.5 360 / 61019.810.8 7.3
2019-Jul-04 11:39N 78°02' E 014°14'0 0.0
2019-Jul-04 11:27N 78°02' E 014°14'0 0.0
2019-Jul-04 10:51N 78°02' E 014°14'0 0.1
2019-Jul-04 10:30N 78°02' E 014°14'0 0.0
2019-Jul-04 10:00N 78°02' E 014°14'0 0.0
2019-Jul-04 09:24N 78°02' E 014°14'0 0.0
2019-Jul-04 09:00N 78°02' E 014°13'0 0.0
2019-Jul-04 08:30N 78°02' E 014°14'0 0.0
2019-Jul-04 08:00N 78°02' E 014°14'0 0.0
2019-Jul-04 07:30N 78°02' E 014°14'0 0.0
2019-Jul-04 06:59N 78°02' E 014°14'0 0.1
2019-Jul-04 06:30N 78°02' E 014°14'2 4.5
2019-Jul-04 06:00N 78°00' E 014°12'245.2 330 / 61018.910.8 7.9
2019-Jul-04 05:56N 78°02' E 014°13'0 0.0
2019-Jul-04 05:26N 78°02' E 014°13'0 0.0
2019-Jul-04 04:59N 78°02' E 014°13'0 0.0
2019-Jul-04 04:29N 78°02' E 014°13'0 0.0
2019-Jul-04 03:59N 78°02' E 014°14'0 0.0
2019-Jul-04 03:29N 78°02' E 014°13'0 0.0
2019-Jul-04 02:59N 78°02' E 014°14'0 0.0
2019-Jul-04 01:59N 78°02' E 014°13'0 0.0
2019-Jul-04 01:29N 78°02' E 014°14'0 0.0
2019-Jul-04 00:59N 78°02' E 014°14'0 0.0
2019-Jul-04 00:29N 78°02' E 014°14'2 4.6
2019-Jul-04 00:00N 78°00' E 014°12'22049.3 320 / 21018.010.8 5.9
2019-Jul-03 23:59N 78°02' E 014°13'0 0.0
2019-Jul-03 23:29N 78°02' E 014°14'0 0.0
2019-Jul-03 22:59N 78°02' E 014°14'0 0.0
2019-Jul-03 22:29N 78°02' E 014°14'0 0.0
2019-Jul-03 21:59N 78°02' E 014°14'0 0.0
2019-Jul-03 21:26N 78°02' E 014°14'0 0.1
2019-Jul-03 21:00N 78°02' E 014°14'3 6.3
2019-Jul-03 20:30N 78°05' E 014°07'5 9.9
2019-Jul-03 20:00N 78°09' E 014°19'510.6
2019-Jul-03 19:30N 78°12' E 014°42'510.5
2019-Jul-03 19:00N 78°14' E 015°05'510.0
2019-Jul-03 18:30N 78°16' E 015°27'3 6.0
2019-Jul-03 18:00N 78°14' E 015°38'0 0.1
2019-Jul-03 17:30N 78°14' E 015°38'0 0.0
2019-Jul-03 17:00N 78°14' E 015°38'0 0.0
2019-Jul-03 16:30N 78°14' E 015°38'0 0.0
2019-Jul-03 16:00N 78°14' E 015°38'0 0.0
2019-Jul-03 15:30N 78°14' E 015°38'0 0.0
2019-Jul-03 15:00N 78°14' E 015°38'0 0.0
2019-Jul-03 14:30N 78°14' E 015°38'0 0.0
2019-Jul-03 14:00N 78°14' E 015°38'0 0.0
2019-Jul-03 13:30N 78°14' E 015°38'0 0.0
2019-Jul-03 13:00N 78°14' E 015°38'0 0.0
2019-Jul-03 12:30N 78°14' E 015°38'0 0.1
2019-Jul-03 12:00N 78°14' E 015°38'2208.0
2019-Jul-03 12:00N 78°12' E 015°36'2 4.1 150 / 141014.110.8 6.0
2019-Jul-03 11:30N 78°14' E 015°38'0 0.0
2019-Jul-03 11:00N 78°14' E 015°38'0 0.0
2019-Jul-03 10:30N 78°14' E 015°38'0 0.1
2019-Jul-03 10:00N 78°14' E 015°38'0 0.1
2019-Jul-03 09:30N 78°14' E 015°38'0 0.0
2019-Jul-03 09:00N 78°14' E 015°38'0 0.1
2019-Jul-03 08:30N 78°14' E 015°38'0 0.1
2019-Jul-03 08:00N 78°14' E 015°38'0 0.1
2019-Jul-03 07:30N 78°14' E 015°38'0 0.1
2019-Jul-03 07:00N 78°14' E 015°38'0 0.1
2019-Jul-03 06:30N 78°14' E 015°38'0 0.1
2019-Jul-03 06:00N 78°14' E 015°38'0 0.1
2019-Jul-03 05:30N 78°14' E 015°38'0 0.1
2019-Jul-03 05:00N 78°14' E 015°38'0 0.1
2019-Jul-03 04:30N 78°14' E 015°38'0 0.1
2019-Jul-03 04:00N 78°14' E 015°38'0 0.0
2019-Jul-03 03:30N 78°14' E 015°38'0 0.1
2019-Jul-03 03:00N 78°14' E 015°38'0 0.0
2019-Jul-03 02:00N 78°14' E 015°38'0 0.0
2019-Jul-03 01:30N 78°14' E 015°38'0 0.1
2019-Jul-03 01:00N 78°14' E 015°38'0 0.0
2019-Jul-03 00:30N 78°14' E 015°38'0 0.0
2019-Jul-03 00:00N 78°14' E 015°38'2249.1
2019-Jul-03 00:00N 78°12' E 015°36'2 4.1 360 / 121009.410.8 7.7
2019-Jul-02 23:30N 78°14' E 015°38'0 0.0
2019-Jul-02 23:00N 78°14' E 015°38'0 0.0
2019-Jul-02 22:30N 78°14' E 015°38'0 0.0
2019-Jul-02 21:58N 78°14' E 015°38'0 0.0
2019-Jul-02 21:28N 78°14' E 015°38'0 0.0
2019-Jul-02 20:58N 78°14' E 015°38'0 0.0
2019-Jul-02 20:28N 78°14' E 015°38'0 0.0
2019-Jul-02 19:58N 78°14' E 015°38'0 1.0
2019-Jul-02 19:30N 78°14' E 015°37'4 7.7
2019-Jul-02 18:59N 78°18' E 015°29'510.0
2019-Jul-02 18:28N 78°23' E 015°40'510.2
2019-Jul-02 18:00N 78°26' E 015°55'510.3
2019-Jul-02 17:30N 78°31' E 016°10'610.9
2019-Jul-02 16:58N 78°35' E 016°28'510.5
2019-Jul-02 16:28N 78°39' E 016°43'3 4.6
2019-Jul-02 15:55N 78°39' E 016°31'1 2.3
2019-Jul-02 15:28N 78°39' E 016°25'0 0.0
2019-Jul-02 14:55N 78°39' E 016°25'0 0.0
2019-Jul-02 14:19N 78°39' E 016°25'0 0.0
2019-Jul-02 13:58N 78°39' E 016°25'0 0.0
2019-Jul-02 13:22N 78°39' E 016°25'0 0.0
2019-Jul-02 12:58N 78°39' E 016°25'0 0.0
2019-Jul-02 12:28N 78°39' E 016°25'0 0.0
2019-Jul-02 11:58N 78°39' E 016°25'0 0.0
2019-Jul-02 11:22N 78°39' E 016°25'0 0.0
2019-Jul-02 10:46N 78°39' E 016°25'0 0.0
2019-Jul-02 10:28N 78°39' E 016°25'0 0.0
2019-Jul-02 09:58N 78°39' E 016°25'0 0.0
2019-Jul-02 09:28N 78°39' E 016°25'0 0.0
2019-Jul-02 08:52N 78°39' E 016°25'0 0.0
2019-Jul-02 08:25N 78°39' E 016°25'0 0.0
2019-Jul-02 07:58N 78°39' E 016°25'0 0.5
2019-Jul-02 07:30N 78°39' E 016°26'3 6.4
2019-Jul-02 06:59N 78°35' E 016°27'4 8.8
2019-Jul-02 06:30N 78°32' E 016°15'5 9.3
2019-Jul-02 06:00N 78°28' E 016°01'510.1
2019-Jul-02 05:28N 78°25' E 015°40'510.2
2019-Jul-02 05:00N 78°22' E 015°22'5 9.6
2019-Jul-02 04:30N 78°19' E 015°03'5 9.6
2019-Jul-02 04:00N 78°16' E 014°43'5 9.7
2019-Jul-02 03:30N 78°14' E 014°22'4 9.2
2019-Jul-02 03:00N 78°11' E 014°03'9 8.9
2019-Jul-02 02:00N 78°08' E 013°23'5 9.5
2019-Jul-02 01:30N 78°08' E 013°00'4 8.4
2019-Jul-02 00:59N 78°08' E 012°39'4 9.1
2019-Jul-02 00:30N 78°08' E 012°17'510.4
2019-Jul-01 23:58N 78°08' E 011°51'510.3
2019-Jul-01 23:30N 78°12' E 011°37'510.3
2019-Jul-01 23:00N 78°16' E 011°21'510.5
2019-Jul-01 22:29N 78°20' E 011°04'710.6
2019-Jul-01 21:49N 78°26' E 010°42'17 9.7
2019-Jul-01 20:04N 78°41' E 010°00'210.6
2019-Jul-01 19:53N 78°43' E 010°00'510.6
2019-Jul-01 19:26N 78°48' E 010°00'510.6
2019-Jul-01 19:00N 78°52' E 010°00'4 8.5
2019-Jul-01 18:30N 78°56' E 010°13'2 4.2
2019-Jul-01 18:00N 78°56' E 010°23'2 4.1
2019-Jul-01 17:30N 78°57' E 010°33'510.2
2019-Jul-01 17:00N 78°59' E 010°59'510.3
2019-Jul-01 16:30N 78°60' E 011°24'510.1
2019-Jul-01 16:00N 78°58' E 011°49'2 4.6
2019-Jul-01 15:30N 78°56' E 011°55'0 0.1
2019-Jul-01 15:00N 78°56' E 011°55'0 0.0
2019-Jul-01 14:30N 78°56' E 011°55'0 0.0
2019-Jul-01 14:00N 78°56' E 011°55'0 0.1
2019-Jul-01 13:30N 78°56' E 011°55'0 0.1
2019-Jul-01 13:00N 78°56' E 011°55'0 0.0
2019-Jul-01 12:30N 78°56' E 011°55'0 0.1
2019-Jul-01 12:00N 78°56' E 011°55'0 0.1
2019-Jul-01 11:30N 78°56' E 011°55'0 0.1
2019-Jul-01 11:00N 78°56' E 011°55'0 0.1
2019-Jul-01 10:30N 78°56' E 011°55'0 0.0
2019-Jul-01 10:00N 78°56' E 011°55'0 0.1
2019-Jul-01 09:30N 78°56' E 011°55'0 0.1
2019-Jul-01 09:00N 78°56' E 011°55'0 0.1
2019-Jul-01 08:30N 78°56' E 011°55'0 0.0
2019-Jul-01 08:00N 78°56' E 011°55'0 0.1
2019-Jul-01 07:30N 78°56' E 011°55'0 0.1
2019-Jul-01 07:00N 78°56' E 011°55'0 0.0
2019-Jul-01 06:30N 78°56' E 011°55'0 0.1
2019-Jul-01 06:00N 78°56' E 011°55'2320.5
2019-Jul-01 06:00N 78°54' E 011°54'2 4.1 130 / 231004.010.8 8.7
2019-Jul-01 05:30N 78°56' E 011°55'0 0.0
2019-Jul-01 05:00N 78°56' E 011°55'0 0.0
2019-Jul-01 04:30N 78°56' E 011°55'0 0.5
2019-Jul-01 04:00N 78°56' E 011°55'4 7.6
2019-Jul-01 03:29N 78°59' E 011°39'5 9.8
2019-Jul-01 03:00N 78°59' E 011°14'5 9.9
2019-Jul-01 02:30N 78°58' E 010°51'5 9.9
2019-Jul-01 01:59N 78°56' E 010°26'5 9.9
2019-Jul-01 01:30N 78°55' E 010°01'5 9.5
2019-Jul-01 00:57N 78°50' E 010°00'  

Dump ship's entire track history